sensor_id;sensor_type;location;lat;lon;timestamp;P1;durP1;ratioP1;P2;durP2;ratioP2
52816;SDS011;38687;43.330;21.924;2023-01-31T00:00:22;77.93;;;39.20;;
52816;SDS011;38687;43.330;21.924;2023-01-31T00:02:50;75.72;;;36.17;;
52816;SDS011;38687;43.330;21.924;2023-01-31T00:05:21;74.90;;;37.75;;
52816;SDS011;38687;43.330;21.924;2023-01-31T00:07:50;77.68;;;37.47;;
52816;SDS011;38687;43.330;21.924;2023-01-31T00:10:15;72.40;;;36.20;;
52816;SDS011;38687;43.330;21.924;2023-01-31T00:12:41;85.40;;;44.05;;
52816;SDS011;38687;43.330;21.924;2023-01-31T00:15:06;74.43;;;38.08;;
52816;SDS011;38687;43.330;21.924;2023-01-31T00:17:32;78.35;;;39.30;;
52816;SDS011;38687;43.330;21.924;2023-01-31T00:20:00;78.30;;;37.85;;
52816;SDS011;38687;43.330;21.924;2023-01-31T00:22:25;76.93;;;38.08;;
52816;SDS011;38687;43.330;21.924;2023-01-31T00:24:50;75.70;;;35.90;;
52816;SDS011;38687;43.330;21.924;2023-01-31T00:27:15;75.05;;;36.30;;
52816;SDS011;38687;43.330;21.924;2023-01-31T00:29:41;90.40;;;43.35;;
52816;SDS011;38687;43.330;21.924;2023-01-31T00:32:09;107.90;;;45.63;;
52816;SDS011;38687;43.330;21.924;2023-01-31T00:34:34;80.63;;;41.08;;
52816;SDS011;38687;43.330;21.924;2023-01-31T00:36:59;78.97;;;36.38;;
52816;SDS011;38687;43.330;21.924;2023-01-31T00:39:25;78.32;;;38.22;;
52816;SDS011;38687;43.330;21.924;2023-01-31T00:41:50;75.10;;;38.42;;
52816;SDS011;38687;43.330;21.924;2023-01-31T00:44:15;84.80;;;42.00;;
52816;SDS011;38687;43.330;21.924;2023-01-31T00:46:40;81.72;;;43.17;;
52816;SDS011;38687;43.330;21.924;2023-01-31T00:49:06;109.78;;;52.28;;
52816;SDS011;38687;43.330;21.924;2023-01-31T00:51:31;111.03;;;55.30;;
52816;SDS011;38687;43.330;21.924;2023-01-31T00:53:56;117.03;;;55.85;;
52816;SDS011;38687;43.330;21.924;2023-01-31T00:56:22;105.93;;;51.43;;
52816;SDS011;38687;43.330;21.924;2023-01-31T00:58:47;110.15;;;54.63;;
52816;SDS011;38687;43.330;21.924;2023-01-31T01:01:17;102.78;;;51.42;;
52816;SDS011;38687;43.330;21.924;2023-01-31T01:03:43;127.50;;;65.38;;
52816;SDS011;38687;43.330;21.924;2023-01-31T01:06:09;105.07;;;58.15;;
52816;SDS011;38687;43.330;21.924;2023-01-31T01:08:35;101.22;;;54.17;;
52816;SDS011;38687;43.330;21.924;2023-01-31T01:11:20;109.50;;;55.33;;
52816;SDS011;38687;43.330;21.924;2023-01-31T01:13:46;99.78;;;49.63;;
52816;SDS011;38687;43.330;21.924;2023-01-31T01:16:16;95.82;;;48.67;;
52816;SDS011;38687;43.330;21.924;2023-01-31T01:18:42;103.10;;;51.38;;
52816;SDS011;38687;43.330;21.924;2023-01-31T01:21:14;100.13;;;50.35;;
52816;SDS011;38687;43.330;21.924;2023-01-31T01:23:39;88.93;;;46.60;;
52816;SDS011;38687;43.330;21.924;2023-01-31T01:26:05;118.93;;;58.88;;
52816;SDS011;38687;43.330;21.924;2023-01-31T01:28:36;128.75;;;64.20;;
52816;SDS011;38687;43.330;21.924;2023-01-31T01:31:05;125.72;;;61.53;;
52816;SDS011;38687;43.330;21.924;2023-01-31T01:33:34;116.90;;;59.22;;
52816;SDS011;38687;43.330;21.924;2023-01-31T01:36:04;114.38;;;54.83;;
52816;SDS011;38687;43.330;21.924;2023-01-31T01:38:30;102.88;;;51.83;;
52816;SDS011;38687;43.330;21.924;2023-01-31T01:40:57;87.00;;;47.63;;
52816;SDS011;38687;43.330;21.924;2023-01-31T01:43:37;92.03;;;46.85;;
52816;SDS011;38687;43.330;21.924;2023-01-31T01:46:07;104.97;;;51.38;;
52816;SDS011;38687;43.330;21.924;2023-01-31T01:48:32;89.70;;;47.00;;
52816;SDS011;38687;43.330;21.924;2023-01-31T01:50:58;98.38;;;48.78;;
52816;SDS011;38687;43.330;21.924;2023-01-31T01:53:24;84.38;;;45.15;;
52816;SDS011;38687;43.330;21.924;2023-01-31T01:55:53;86.57;;;45.40;;
52816;SDS011;38687;43.330;21.924;2023-01-31T01:58:23;87.93;;;43.67;;
52816;SDS011;38687;43.330;21.924;2023-01-31T02:00:49;81.63;;;43.88;;
52816;SDS011;38687;43.330;21.924;2023-01-31T02:03:15;96.82;;;46.65;;
52816;SDS011;38687;43.330;21.924;2023-01-31T02:05:48;91.00;;;46.65;;
52816;SDS011;38687;43.330;21.924;2023-01-31T02:08:14;95.97;;;46.55;;
52816;SDS011;38687;43.330;21.924;2023-01-31T02:10:52;76.60;;;41.75;;
52816;SDS011;38687;43.330;21.924;2023-01-31T02:13:18;83.50;;;42.70;;
52816;SDS011;38687;43.330;21.924;2023-01-31T02:15:44;93.57;;;44.65;;
52816;SDS011;38687;43.330;21.924;2023-01-31T02:18:10;97.18;;;46.72;;
52816;SDS011;38687;43.330;21.924;2023-01-31T02:26:15;70.10;;;37.22;;
52816;SDS011;38687;43.330;21.924;2023-01-31T02:31:35;58.22;;;28.55;;
52816;SDS011;38687;43.330;21.924;2023-01-31T02:34:15;66.72;;;34.95;;
52816;SDS011;38687;43.330;21.924;2023-01-31T02:42:04;50.17;;;26.77;;
52816;SDS011;38687;43.330;21.924;2023-01-31T02:50:19;50.38;;;25.48;;
52816;SDS011;38687;43.330;21.924;2023-01-31T02:55:25;62.63;;;30.65;;
52816;SDS011;38687;43.330;21.924;2023-01-31T02:58:11;64.53;;;31.38;;
52816;SDS011;38687;43.330;21.924;2023-01-31T03:00:38;60.60;;;29.73;;
52816;SDS011;38687;43.330;21.924;2023-01-31T03:03:05;64.30;;;31.35;;
52816;SDS011;38687;43.330;21.924;2023-01-31T03:05:31;59.70;;;28.48;;
52816;SDS011;38687;43.330;21.924;2023-01-31T03:07:57;49.13;;;27.17;;
52816;SDS011;38687;43.330;21.924;2023-01-31T03:10:34;60.13;;;27.83;;
52816;SDS011;38687;43.330;21.924;2023-01-31T03:13:10;52.50;;;25.10;;
52816;SDS011;38687;43.330;21.924;2023-01-31T03:15:40;63.30;;;31.23;;
52816;SDS011;38687;43.330;21.924;2023-01-31T03:18:33;67.68;;;29.95;;
52816;SDS011;38687;43.330;21.924;2023-01-31T03:21:08;52.65;;;26.23;;
52816;SDS011;38687;43.330;21.924;2023-01-31T03:23:35;43.63;;;23.10;;
52816;SDS011;38687;43.330;21.924;2023-01-31T03:26:02;41.60;;;22.58;;
52816;SDS011;38687;43.330;21.924;2023-01-31T03:28:30;48.40;;;24.30;;
52816;SDS011;38687;43.330;21.924;2023-01-31T03:30:59;50.97;;;25.02;;
52816;SDS011;38687;43.330;21.924;2023-01-31T03:33:27;58.58;;;26.77;;
52816;SDS011;38687;43.330;21.924;2023-01-31T03:35:59;49.20;;;24.52;;
52816;SDS011;38687;43.330;21.924;2023-01-31T03:38:30;51.58;;;25.42;;
52816;SDS011;38687;43.330;21.924;2023-01-31T03:41:02;41.45;;;22.17;;
52816;SDS011;38687;43.330;21.924;2023-01-31T03:43:37;47.42;;;23.35;;
52816;SDS011;38687;43.330;21.924;2023-01-31T03:46:06;48.67;;;22.65;;
52816;SDS011;38687;43.330;21.924;2023-01-31T03:48:35;60.90;;;29.67;;
52816;SDS011;38687;43.330;21.924;2023-01-31T03:51:02;61.47;;;31.63;;
52816;SDS011;38687;43.330;21.924;2023-01-31T03:53:36;67.70;;;33.60;;
52816;SDS011;38687;43.330;21.924;2023-01-31T03:58:44;66.35;;;31.90;;
52816;SDS011;38687;43.330;21.924;2023-01-31T04:01:11;61.22;;;30.50;;
52816;SDS011;38687;43.330;21.924;2023-01-31T04:03:38;56.90;;;29.35;;
52816;SDS011;38687;43.330;21.924;2023-01-31T04:06:04;54.67;;;28.23;;
52816;SDS011;38687;43.330;21.924;2023-01-31T04:08:30;61.53;;;28.95;;
52816;SDS011;38687;43.330;21.924;2023-01-31T04:10:56;53.28;;;27.67;;
52816;SDS011;38687;43.330;21.924;2023-01-31T04:13:22;52.53;;;27.90;;
52816;SDS011;38687;43.330;21.924;2023-01-31T04:15:47;59.58;;;30.48;;
52816;SDS011;38687;43.330;21.924;2023-01-31T04:18:13;63.40;;;30.85;;
52816;SDS011;38687;43.330;21.924;2023-01-31T04:20:38;63.15;;;31.23;;
52816;SDS011;38687;43.330;21.924;2023-01-31T04:23:03;54.87;;;30.50;;
52816;SDS011;38687;43.330;21.924;2023-01-31T04:25:28;60.17;;;30.77;;
52816;SDS011;38687;43.330;21.924;2023-01-31T04:27:54;56.83;;;29.83;;
52816;SDS011;38687;43.330;21.924;2023-01-31T04:30:19;57.42;;;29.50;;
52816;SDS011;38687;43.330;21.924;2023-01-31T04:32:44;56.55;;;30.95;;
52816;SDS011;38687;43.330;21.924;2023-01-31T04:35:10;54.38;;;29.80;;
52816;SDS011;38687;43.330;21.924;2023-01-31T04:37:35;60.92;;;29.73;;
52816;SDS011;38687;43.330;21.924;2023-01-31T04:40:00;54.53;;;30.65;;
52816;SDS011;38687;43.330;21.924;2023-01-31T04:42:26;55.40;;;30.55;;
52816;SDS011;38687;43.330;21.924;2023-01-31T04:44:51;63.03;;;32.20;;
52816;SDS011;38687;43.330;21.924;2023-01-31T04:47:16;68.68;;;30.38;;
52816;SDS011;38687;43.330;21.924;2023-01-31T04:49:41;73.03;;;37.22;;
52816;SDS011;38687;43.330;21.924;2023-01-31T04:52:08;81.05;;;37.83;;
52816;SDS011;38687;43.330;21.924;2023-01-31T04:54:34;73.63;;;38.60;;
52816;SDS011;38687;43.330;21.924;2023-01-31T04:57:03;85.82;;;41.33;;
52816;SDS011;38687;43.330;21.924;2023-01-31T04:59:28;90.63;;;42.75;;
52816;SDS011;38687;43.330;21.924;2023-01-31T05:01:53;81.85;;;40.80;;
52816;SDS011;38687;43.330;21.924;2023-01-31T05:04:19;76.55;;;38.47;;
52816;SDS011;38687;43.330;21.924;2023-01-31T05:06:48;73.35;;;37.67;;
52816;SDS011;38687;43.330;21.924;2023-01-31T05:09:13;77.32;;;36.97;;
52816;SDS011;38687;43.330;21.924;2023-01-31T05:11:38;70.93;;;36.30;;
52816;SDS011;38687;43.330;21.924;2023-01-31T05:14:03;72.53;;;35.67;;
52816;SDS011;38687;43.330;21.924;2023-01-31T05:16:29;70.35;;;34.83;;
52816;SDS011;38687;43.330;21.924;2023-01-31T05:18:54;67.60;;;34.08;;
52816;SDS011;38687;43.330;21.924;2023-01-31T05:21:21;166.23;;;71.88;;
52816;SDS011;38687;43.330;21.924;2023-01-31T05:23:47;78.53;;;36.22;;
52816;SDS011;38687;43.330;21.924;2023-01-31T05:26:13;69.68;;;36.60;;
52816;SDS011;38687;43.330;21.924;2023-01-31T05:28:38;148.35;;;61.70;;
52816;SDS011;38687;43.330;21.924;2023-01-31T05:31:05;86.15;;;41.53;;
52816;SDS011;38687;43.330;21.924;2023-01-31T05:33:31;120.13;;;53.50;;
52816;SDS011;38687;43.330;21.924;2023-01-31T05:35:57;123.13;;;56.72;;
52816;SDS011;38687;43.330;21.924;2023-01-31T05:38:22;138.45;;;62.75;;
52816;SDS011;38687;43.330;21.924;2023-01-31T05:40:48;93.38;;;46.45;;
52816;SDS011;38687;43.330;21.924;2023-01-31T05:43:14;264.38;;;110.80;;
52816;SDS011;38687;43.330;21.924;2023-01-31T05:45:39;103.60;;;50.53;;
52816;SDS011;38687;43.330;21.924;2023-01-31T05:48:05;96.28;;;47.83;;
52816;SDS011;38687;43.330;21.924;2023-01-31T05:50:30;126.85;;;56.42;;
52816;SDS011;38687;43.330;21.924;2023-01-31T05:52:56;149.20;;;67.65;;
52816;SDS011;38687;43.330;21.924;2023-01-31T05:55:27;98.80;;;49.47;;
52816;SDS011;38687;43.330;21.924;2023-01-31T05:57:52;119.25;;;58.25;;
52816;SDS011;38687;43.330;21.924;2023-01-31T06:00:18;107.10;;;51.38;;
52816;SDS011;38687;43.330;21.924;2023-01-31T06:02:43;119.97;;;56.58;;
52816;SDS011;38687;43.330;21.924;2023-01-31T06:05:09;216.13;;;99.32;;
52816;SDS011;38687;43.330;21.924;2023-01-31T06:07:34;140.23;;;66.82;;
52816;SDS011;38687;43.330;21.924;2023-01-31T06:09:59;109.57;;;53.30;;
52816;SDS011;38687;43.330;21.924;2023-01-31T06:12:25;108.57;;;49.10;;
52816;SDS011;38687;43.330;21.924;2023-01-31T06:14:50;111.20;;;55.13;;
52816;SDS011;38687;43.330;21.924;2023-01-31T06:17:15;107.38;;;51.10;;
52816;SDS011;38687;43.330;21.924;2023-01-31T06:19:41;105.65;;;49.90;;
52816;SDS011;38687;43.330;21.924;2023-01-31T06:22:16;109.78;;;55.13;;
52816;SDS011;38687;43.330;21.924;2023-01-31T06:24:47;100.60;;;46.83;;
52816;SDS011;38687;43.330;21.924;2023-01-31T06:27:12;106.80;;;53.22;;
52816;SDS011;38687;43.330;21.924;2023-01-31T06:29:38;109.63;;;53.85;;
52816;SDS011;38687;43.330;21.924;2023-01-31T06:32:03;112.28;;;56.38;;
52816;SDS011;38687;43.330;21.924;2023-01-31T06:34:28;149.98;;;63.85;;
52816;SDS011;38687;43.330;21.924;2023-01-31T06:36:54;96.30;;;49.97;;
52816;SDS011;38687;43.330;21.924;2023-01-31T06:39:19;119.88;;;55.05;;
52816;SDS011;38687;43.330;21.924;2023-01-31T06:41:44;143.48;;;64.93;;
52816;SDS011;38687;43.330;21.924;2023-01-31T06:44:13;145.57;;;68.38;;
52816;SDS011;38687;43.330;21.924;2023-01-31T06:46:38;140.57;;;68.00;;
52816;SDS011;38687;43.330;21.924;2023-01-31T06:49:06;86.50;;;44.83;;
52816;SDS011;38687;43.330;21.924;2023-01-31T06:51:31;98.72;;;52.33;;
52816;SDS011;38687;43.330;21.924;2023-01-31T06:53:57;139.82;;;67.13;;
52816;SDS011;38687;43.330;21.924;2023-01-31T06:56:23;122.47;;;61.13;;
52816;SDS011;38687;43.330;21.924;2023-01-31T06:58:48;99.65;;;49.63;;
52816;SDS011;38687;43.330;21.924;2023-01-31T07:01:16;107.40;;;53.33;;
52816;SDS011;38687;43.330;21.924;2023-01-31T07:03:41;104.50;;;51.33;;
52816;SDS011;38687;43.330;21.924;2023-01-31T07:06:10;103.18;;;54.97;;
52816;SDS011;38687;43.330;21.924;2023-01-31T07:08:35;137.15;;;61.00;;
52816;SDS011;38687;43.330;21.924;2023-01-31T07:11:04;109.38;;;54.40;;
52816;SDS011;38687;43.330;21.924;2023-01-31T07:13:29;100.22;;;52.00;;
52816;SDS011;38687;43.330;21.924;2023-01-31T07:15:55;91.95;;;52.80;;
52816;SDS011;38687;43.330;21.924;2023-01-31T07:18:23;158.00;;;73.63;;
52816;SDS011;38687;43.330;21.924;2023-01-31T07:20:48;163.52;;;73.35;;
52816;SDS011;38687;43.330;21.924;2023-01-31T07:23:14;284.10;;;138.90;;
52816;SDS011;38687;43.330;21.924;2023-01-31T07:25:39;192.85;;;93.85;;
52816;SDS011;38687;43.330;21.924;2023-01-31T07:28:05;147.93;;;77.18;;
52816;SDS011;38687;43.330;21.924;2023-01-31T07:30:30;177.38;;;85.35;;
52816;SDS011;38687;43.330;21.924;2023-01-31T07:32:59;120.43;;;63.15;;
52816;SDS011;38687;43.330;21.924;2023-01-31T07:35:24;148.00;;;83.13;;
52816;SDS011;38687;43.330;21.924;2023-01-31T07:37:52;147.75;;;76.18;;
52816;SDS011;38687;43.330;21.924;2023-01-31T07:40:18;131.02;;;71.00;;
52816;SDS011;38687;43.330;21.924;2023-01-31T07:42:43;182.48;;;91.85;;
52816;SDS011;38687;43.330;21.924;2023-01-31T07:45:10;156.82;;;78.55;;
52816;SDS011;38687;43.330;21.924;2023-01-31T07:47:35;129.98;;;67.47;;
52816;SDS011;38687;43.330;21.924;2023-01-31T07:50:01;133.02;;;69.30;;
52816;SDS011;38687;43.330;21.924;2023-01-31T07:52:26;137.70;;;70.40;;
52816;SDS011;38687;43.330;21.924;2023-01-31T07:54:51;146.77;;;74.32;;
52816;SDS011;38687;43.330;21.924;2023-01-31T07:57:16;139.60;;;73.07;;
52816;SDS011;38687;43.330;21.924;2023-01-31T07:59:42;129.65;;;67.80;;
52816;SDS011;38687;43.330;21.924;2023-01-31T08:02:10;120.72;;;61.80;;
52816;SDS011;38687;43.330;21.924;2023-01-31T08:04:54;115.72;;;60.83;;
52816;SDS011;38687;43.330;21.924;2023-01-31T08:07:20;118.45;;;63.63;;
52816;SDS011;38687;43.330;21.924;2023-01-31T08:09:48;137.95;;;72.18;;
52816;SDS011;38687;43.330;21.924;2023-01-31T08:12:14;146.45;;;75.85;;
52816;SDS011;38687;43.330;21.924;2023-01-31T08:14:39;120.45;;;63.78;;
52816;SDS011;38687;43.330;21.924;2023-01-31T08:17:05;118.50;;;60.35;;
52816;SDS011;38687;43.330;21.924;2023-01-31T08:19:32;151.90;;;78.60;;
52816;SDS011;38687;43.330;21.924;2023-01-31T08:21:58;148.25;;;75.22;;
52816;SDS011;38687;43.330;21.924;2023-01-31T08:24:23;173.70;;;88.95;;
52816;SDS011;38687;43.330;21.924;2023-01-31T08:26:49;139.18;;;73.28;;
52816;SDS011;38687;43.330;21.924;2023-01-31T08:29:14;156.88;;;79.03;;
52816;SDS011;38687;43.330;21.924;2023-01-31T08:31:42;221.10;;;108.95;;
52816;SDS011;38687;43.330;21.924;2023-01-31T08:34:08;182.43;;;96.85;;
52816;SDS011;38687;43.330;21.924;2023-01-31T08:36:33;181.43;;;96.10;;
52816;SDS011;38687;43.330;21.924;2023-01-31T08:39:00;171.73;;;89.07;;
52816;SDS011;38687;43.330;21.924;2023-01-31T08:41:25;179.00;;;89.97;;
52816;SDS011;38687;43.330;21.924;2023-01-31T08:43:51;185.52;;;96.25;;
52816;SDS011;38687;43.330;21.924;2023-01-31T08:46:17;193.68;;;105.20;;
52816;SDS011;38687;43.330;21.924;2023-01-31T08:48:42;208.57;;;111.38;;
52816;SDS011;38687;43.330;21.924;2023-01-31T08:51:09;212.90;;;113.28;;
52816;SDS011;38687;43.330;21.924;2023-01-31T08:53:38;223.63;;;115.40;;
52816;SDS011;38687;43.330;21.924;2023-01-31T08:56:04;211.32;;;108.40;;
52816;SDS011;38687;43.330;21.924;2023-01-31T08:58:30;199.20;;;109.07;;
52816;SDS011;38687;43.330;21.924;2023-01-31T09:01:02;276.15;;;131.65;;
52816;SDS011;38687;43.330;21.924;2023-01-31T09:03:27;197.95;;;102.65;;
52816;SDS011;38687;43.330;21.924;2023-01-31T09:05:53;190.25;;;101.68;;
52816;SDS011;38687;43.330;21.924;2023-01-31T09:08:18;319.60;;;174.00;;
52816;SDS011;38687;43.330;21.924;2023-01-31T09:10:49;294.38;;;148.45;;
52816;SDS011;38687;43.330;21.924;2023-01-31T09:13:16;247.80;;;135.60;;
52816;SDS011;38687;43.330;21.924;2023-01-31T09:15:41;270.10;;;147.55;;
52816;SDS011;38687;43.330;21.924;2023-01-31T09:18:07;293.55;;;152.27;;
52816;SDS011;38687;43.330;21.924;2023-01-31T09:20:32;245.07;;;129.40;;
52816;SDS011;38687;43.330;21.924;2023-01-31T09:22:57;221.30;;;116.28;;
52816;SDS011;38687;43.330;21.924;2023-01-31T09:25:22;190.63;;;105.03;;
52816;SDS011;38687;43.330;21.924;2023-01-31T09:27:48;190.77;;;97.75;;
52816;SDS011;38687;43.330;21.924;2023-01-31T09:30:16;179.80;;;100.18;;
52816;SDS011;38687;43.330;21.924;2023-01-31T09:32:41;182.95;;;97.25;;
52816;SDS011;38687;43.330;21.924;2023-01-31T09:35:08;184.63;;;102.85;;
52816;SDS011;38687;43.330;21.924;2023-01-31T09:37:33;239.25;;;116.47;;
52816;SDS011;38687;43.330;21.924;2023-01-31T09:39:58;449.00;;;215.10;;
52816;SDS011;38687;43.330;21.924;2023-01-31T09:42:26;374.00;;;183.85;;
52816;SDS011;38687;43.330;21.924;2023-01-31T09:45:01;353.90;;;193.75;;
52816;SDS011;38687;43.330;21.924;2023-01-31T09:47:33;275.25;;;149.85;;
52816;SDS011;38687;43.330;21.924;2023-01-31T09:50:03;219.00;;;113.38;;
52816;SDS011;38687;43.330;21.924;2023-01-31T09:52:30;195.00;;;111.68;;
52816;SDS011;38687;43.330;21.924;2023-01-31T09:54:56;187.98;;;102.55;;
52816;SDS011;38687;43.330;21.924;2023-01-31T10:05:22;220.80;;;117.35;;
52816;SDS011;38687;43.330;21.924;2023-01-31T10:07:59;194.93;;;105.32;;
52816;SDS011;38687;43.330;21.924;2023-01-31T10:10:35;195.00;;;109.25;;
52816;SDS011;38687;43.330;21.924;2023-01-31T10:13:11;196.18;;;115.50;;
52816;SDS011;38687;43.330;21.924;2023-01-31T10:15:41;194.15;;;104.60;;
52816;SDS011;38687;43.330;21.924;2023-01-31T10:18:29;193.45;;;107.50;;
52816;SDS011;38687;43.330;21.924;2023-01-31T10:21:03;178.35;;;102.25;;
52816;SDS011;38687;43.330;21.924;2023-01-31T10:23:35;184.70;;;98.38;;
52816;SDS011;38687;43.330;21.924;2023-01-31T10:26:01;201.35;;;104.68;;
52816;SDS011;38687;43.330;21.924;2023-01-31T10:28:41;197.15;;;103.95;;
52816;SDS011;38687;43.330;21.924;2023-01-31T10:31:28;208.07;;;116.80;;
52816;SDS011;38687;43.330;21.924;2023-01-31T10:33:56;229.98;;;128.07;;
52816;SDS011;38687;43.330;21.924;2023-01-31T10:36:37;251.52;;;139.52;;
52816;SDS011;38687;43.330;21.924;2023-01-31T10:39:05;255.23;;;137.20;;
52816;SDS011;38687;43.330;21.924;2023-01-31T10:41:46;270.35;;;146.65;;
52816;SDS011;38687;43.330;21.924;2023-01-31T10:44:23;269.40;;;146.60;;
52816;SDS011;38687;43.330;21.924;2023-01-31T10:46:51;343.45;;;188.18;;
52816;SDS011;38687;43.330;21.924;2023-01-31T10:49:17;370.52;;;195.25;;
52816;SDS011;38687;43.330;21.924;2023-01-31T10:56:46;171.93;;;97.97;;
52816;SDS011;38687;43.330;21.924;2023-01-31T10:59:32;245.30;;;133.40;;
52816;SDS011;38687;43.330;21.924;2023-01-31T11:01:59;303.92;;;160.93;;
52816;SDS011;38687;43.330;21.924;2023-01-31T11:06:54;172.80;;;96.28;;
52816;SDS011;38687;43.330;21.924;2023-01-31T11:09:19;223.85;;;127.45;;
52816;SDS011;38687;43.330;21.924;2023-01-31T11:11:56;204.55;;;110.43;;
52816;SDS011;38687;43.330;21.924;2023-01-31T11:14:21;335.58;;;172.35;;
52816;SDS011;38687;43.330;21.924;2023-01-31T11:16:47;215.68;;;117.07;;
52816;SDS011;38687;43.330;21.924;2023-01-31T11:19:17;98.85;;;55.60;;
52816;SDS011;38687;43.330;21.924;2023-01-31T11:21:47;133.30;;;74.10;;
52816;SDS011;38687;43.330;21.924;2023-01-31T11:24:17;121.57;;;66.50;;
52816;SDS011;38687;43.330;21.924;2023-01-31T11:26:49;96.45;;;54.72;;
52816;SDS011;38687;43.330;21.924;2023-01-31T11:29:16;124.78;;;65.88;;
52816;SDS011;38687;43.330;21.924;2023-01-31T11:31:42;147.57;;;86.00;;
52816;SDS011;38687;43.330;21.924;2023-01-31T11:34:19;132.00;;;79.53;;
52816;SDS011;38687;43.330;21.924;2023-01-31T11:36:44;161.00;;;90.72;;
52816;SDS011;38687;43.330;21.924;2023-01-31T11:39:44;138.88;;;81.90;;
52816;SDS011;38687;43.330;21.924;2023-01-31T11:42:10;148.05;;;82.22;;
52816;SDS011;38687;43.330;21.924;2023-01-31T11:44:36;88.53;;;49.53;;
52816;SDS011;38687;43.330;21.924;2023-01-31T11:47:02;135.10;;;75.50;;
52816;SDS011;38687;43.330;21.924;2023-01-31T11:49:30;84.15;;;48.38;;
52816;SDS011;38687;43.330;21.924;2023-01-31T11:52:01;53.67;;;32.05;;
52816;SDS011;38687;43.330;21.924;2023-01-31T11:54:27;72.38;;;39.30;;
52816;SDS011;38687;43.330;21.924;2023-01-31T11:56:54;51.28;;;27.92;;
52816;SDS011;38687;43.330;21.924;2023-01-31T11:59:21;43.10;;;22.75;;
52816;SDS011;38687;43.330;21.924;2023-01-31T12:01:48;36.17;;;21.77;;
52816;SDS011;38687;43.330;21.924;2023-01-31T12:04:21;23.83;;;12.85;;
52816;SDS011;38687;43.330;21.924;2023-01-31T12:07:02;24.65;;;13.63;;
52816;SDS011;38687;43.330;21.924;2023-01-31T12:09:29;23.40;;;11.80;;
52816;SDS011;38687;43.330;21.924;2023-01-31T12:11:56;35.42;;;16.42;;
52816;SDS011;38687;43.330;21.924;2023-01-31T12:14:22;31.08;;;16.58;;
52816;SDS011;38687;43.330;21.924;2023-01-31T12:16:49;17.70;;;9.15;;
52816;SDS011;38687;43.330;21.924;2023-01-31T12:19:24;21.90;;;12.18;;
52816;SDS011;38687;43.330;21.924;2023-01-31T12:22:03;32.55;;;17.42;;
52816;SDS011;38687;43.330;21.924;2023-01-31T12:24:43;26.83;;;17.30;;
52816;SDS011;38687;43.330;21.924;2023-01-31T12:30:18;30.45;;;18.80;;
52816;SDS011;38687;43.330;21.924;2023-01-31T12:41:05;25.70;;;15.35;;
52816;SDS011;38687;43.330;21.924;2023-01-31T12:43:25;30.45;;;15.23;;
52816;SDS011;38687;43.330;21.924;2023-01-31T12:46:28;33.55;;;15.90;;
52816;SDS011;38687;43.330;21.924;2023-01-31T12:48:50;39.50;;;22.30;;
52816;SDS011;38687;43.330;21.924;2023-01-31T13:01:49;34.03;;;21.30;;
52816;SDS011;38687;43.330;21.924;2023-01-31T13:06:44;19.75;;;12.30;;
52816;SDS011;38687;43.330;21.924;2023-01-31T13:09:20;30.23;;;15.32;;
52816;SDS011;38687;43.330;21.924;2023-01-31T13:11:49;35.58;;;20.15;;
52816;SDS011;38687;43.330;21.924;2023-01-31T13:14:25;23.25;;;11.68;;
52816;SDS011;38687;43.330;21.924;2023-01-31T13:16:55;32.22;;;10.50;;
52816;SDS011;38687;43.330;21.924;2023-01-31T13:21:59;33.90;;;18.60;;
52816;SDS011;38687;43.330;21.924;2023-01-31T13:24:27;22.40;;;12.52;;
52816;SDS011;38687;43.330;21.924;2023-01-31T13:26:59;31.45;;;19.10;;
52816;SDS011;38687;43.330;21.924;2023-01-31T13:29:33;21.25;;;11.85;;
52816;SDS011;38687;43.330;21.924;2023-01-31T13:32:02;30.08;;;16.25;;
52816;SDS011;38687;43.330;21.924;2023-01-31T13:34:48;30.70;;;16.95;;
52816;SDS011;38687;43.330;21.924;2023-01-31T13:37:19;67.00;;;29.02;;
52816;SDS011;38687;43.330;21.924;2023-01-31T13:42:16;46.08;;;20.23;;
52816;SDS011;38687;43.330;21.924;2023-01-31T13:44:42;18.30;;;10.23;;
52816;SDS011;38687;43.330;21.924;2023-01-31T13:49:37;23.52;;;15.95;;
52816;SDS011;38687;43.330;21.924;2023-01-31T14:00:06;14.57;;;8.73;;
52816;SDS011;38687;43.330;21.924;2023-01-31T14:02:31;21.10;;;11.90;;
52816;SDS011;38687;43.330;21.924;2023-01-31T14:10:36;21.38;;;10.23;;
52816;SDS011;38687;43.330;21.924;2023-01-31T14:15:47;23.27;;;14.00;;
52816;SDS011;38687;43.330;21.924;2023-01-31T14:18:13;23.63;;;15.25;;
52816;SDS011;38687;43.330;21.924;2023-01-31T14:21:18;36.45;;;22.40;;
52816;SDS011;38687;43.330;21.924;2023-01-31T14:23:44;42.63;;;24.77;;
52816;SDS011;38687;43.330;21.924;2023-01-31T14:28:55;31.38;;;16.90;;
52816;SDS011;38687;43.330;21.924;2023-01-31T14:31:20;27.50;;;14.63;;
52816;SDS011;38687;43.330;21.924;2023-01-31T14:33:45;32.90;;;19.38;;
52816;SDS011;38687;43.330;21.924;2023-01-31T14:36:17;45.58;;;23.55;;
52816;SDS011;38687;43.330;21.924;2023-01-31T14:39:10;39.67;;;22.40;;
52816;SDS011;38687;43.330;21.924;2023-01-31T14:47:23;24.55;;;13.05;;
52816;SDS011;38687;43.330;21.924;2023-01-31T14:57:57;26.50;;;15.13;;
52816;SDS011;38687;43.330;21.924;2023-01-31T15:00:25;23.27;;;14.55;;
52816;SDS011;38687;43.330;21.924;2023-01-31T15:03:06;32.95;;;16.90;;
52816;SDS011;38687;43.330;21.924;2023-01-31T15:07:57;23.27;;;13.67;;
52816;SDS011;38687;43.330;21.924;2023-01-31T15:13:53;33.25;;;18.63;;
52816;SDS011;38687;43.330;21.924;2023-01-31T15:16:59;24.33;;;13.85;;
52816;SDS011;38687;43.330;21.924;2023-01-31T15:19:15;29.10;;;17.60;;
52816;SDS011;38687;43.330;21.924;2023-01-31T15:21:49;25.88;;;14.48;;
52816;SDS011;38687;43.330;21.924;2023-01-31T15:24:23;38.03;;;18.77;;
52816;SDS011;38687;43.330;21.924;2023-01-31T15:26:48;29.77;;;14.23;;
52816;SDS011;38687;43.330;21.924;2023-01-31T15:29:18;43.00;;;25.52;;
52816;SDS011;38687;43.330;21.924;2023-01-31T15:31:49;22.63;;;12.63;;
52816;SDS011;38687;43.330;21.924;2023-01-31T15:34:20;44.88;;;23.20;;
52816;SDS011;38687;43.330;21.924;2023-01-31T15:39:22;16.13;;;9.65;;
52816;SDS011;38687;43.330;21.924;2023-01-31T15:41:50;19.05;;;11.63;;
52816;SDS011;38687;43.330;21.924;2023-01-31T15:46:41;43.20;;;22.80;;
52816;SDS011;38687;43.330;21.924;2023-01-31T15:54:28;51.40;;;25.55;;
52816;SDS011;38687;43.330;21.924;2023-01-31T15:56:56;48.40;;;25.95;;
52816;SDS011;38687;43.330;21.924;2023-01-31T15:59:24;38.22;;;20.88;;
52816;SDS011;38687;43.330;21.924;2023-01-31T16:01:51;155.85;;;57.22;;
52816;SDS011;38687;43.330;21.924;2023-01-31T16:04:19;119.47;;;51.58;;
52816;SDS011;38687;43.330;21.924;2023-01-31T16:06:44;84.57;;;44.03;;
52816;SDS011;38687;43.330;21.924;2023-01-31T16:09:20;88.30;;;49.83;;